createdAt,value
2023-02-28T00:02:54.383Z,11.40
2023-02-28T00:05:56.500Z,11.43
2023-02-28T00:08:58.887Z,12.90
2023-02-28T00:12:04.668Z,11.35
2023-02-28T00:15:08.928Z,14.98
2023-02-28T00:18:11.002Z,9.55
2023-02-28T00:21:13.754Z,18.13
2023-02-28T00:24:17.091Z,12.82
2023-02-28T00:27:19.190Z,11.18
2023-02-28T00:30:23.792Z,13.52
2023-02-28T00:33:25.880Z,12.50
2023-02-28T00:36:29.749Z,8.82
2023-02-28T00:39:32.483Z,10.43
2023-02-28T00:42:35.988Z,12.88
2023-02-28T00:45:38.043Z,11.77
2023-02-28T00:48:40.146Z,15.73
2023-02-28T00:51:44.184Z,9.75
2023-02-28T00:54:46.207Z,12.15
2023-02-28T00:57:50.390Z,14.50
2023-02-28T01:00:53.843Z,10.70
2023-02-28T01:03:56.068Z,12.07
2023-02-28T01:06:58.280Z,13.52
2023-02-28T01:10:00.553Z,10.27
2023-02-28T01:13:02.580Z,12.48
2023-02-28T01:16:05.005Z,12.00
2023-02-28T01:19:08.919Z,12.25
2023-02-28T01:22:11.217Z,17.05
2023-02-28T01:25:14.037Z,12.50
2023-02-28T01:28:16.145Z,15.02
2023-02-28T01:31:19.379Z,15.18
2023-02-28T01:34:21.475Z,13.57
2023-02-28T01:37:23.506Z,10.07
2023-02-28T01:40:25.521Z,8.55
2023-02-28T01:43:50.491Z,11.07
2023-02-28T01:46:52.527Z,9.38
2023-02-28T01:49:54.933Z,10.63
2023-02-28T01:53:01.108Z,11.10
2023-02-28T01:56:10.094Z,10.07
2023-02-28T01:59:16.082Z,11.55
2023-02-28T02:02:20.321Z,9.00
2023-02-28T02:05:29.686Z,9.75
2023-02-28T02:08:31.757Z,10.80
2023-02-28T02:11:35.558Z,13.15
2023-02-28T02:14:44.814Z,10.95
2023-02-28T02:17:52.861Z,10.10
2023-02-28T02:21:25.882Z,11.55
2023-02-28T02:24:56.984Z,8.65
2023-02-28T02:28:23.477Z,10.32
2023-02-28T02:32:10.282Z,8.27
2023-02-28T02:35:34.995Z,13.55
2023-02-28T02:38:47.121Z,11.50
2023-02-28T02:41:54.619Z,10.07
2023-02-28T02:45:08.443Z,13.07
2023-02-28T02:48:16.880Z,15.50
2023-02-28T02:51:23.054Z,11.15
2023-02-28T02:54:29.897Z,11.77
2023-02-28T02:57:53.772Z,9.23
2023-02-28T03:01:00.744Z,11.07
2023-02-28T03:04:07.972Z,13.32
2023-02-28T03:07:10.703Z,12.85
2023-02-28T03:10:36.687Z,12.30
2023-02-28T03:13:44.048Z,11.65
2023-02-28T03:17:05.054Z,9.57
2023-02-28T03:20:19.218Z,13.45
2023-02-28T03:23:35.917Z,11.52
2023-02-28T03:26:46.518Z,12.07
2023-02-28T03:30:04.462Z,10.13
2023-02-28T03:33:38.056Z,11.73
2023-02-28T03:36:47.062Z,8.88
2023-02-28T03:39:57.674Z,11.85
2023-02-28T03:43:09.482Z,12.70
2023-02-28T03:46:16.164Z,12.77
2023-02-28T03:49:26.015Z,13.35
2023-02-28T03:52:34.806Z,11.18
2023-02-28T03:55:43.914Z,10.05
2023-02-28T03:58:58.273Z,11.57
2023-02-28T04:02:00.894Z,15.82
2023-02-28T04:05:03.159Z,10.38
2023-02-28T04:08:09.269Z,14.45
2023-02-28T04:11:19.837Z,12.95
2023-02-28T04:14:21.822Z,9.95
2023-02-28T04:17:23.888Z,12.50
2023-02-28T04:20:25.940Z,15.23
2023-02-28T04:23:27.871Z,13.77
2023-02-28T04:26:34.741Z,12.45
2023-02-28T04:29:37.099Z,13.77
2023-02-28T04:32:39.195Z,14.32
2023-02-28T04:35:41.322Z,14.25
2023-02-28T04:38:43.309Z,11.15
2023-02-28T04:41:46.549Z,13.82
2023-02-28T04:44:48.582Z,11.32
2023-02-28T04:47:50.811Z,11.88
2023-02-28T04:50:53.290Z,14.57
2023-02-28T04:53:56.075Z,11.73
2023-02-28T04:56:58.607Z,10.95
2023-02-28T05:00:00.974Z,10.68
2023-02-28T05:03:03.201Z,11.75
2023-02-28T05:06:05.452Z,14.10
2023-02-28T05:09:07.447Z,12.57
2023-02-28T05:12:10.864Z,15.82
2023-02-28T05:15:15.141Z,10.77
2023-02-28T05:18:17.196Z,11.95
2023-02-28T05:21:32.323Z,12.75
2023-02-28T05:24:34.490Z,17.38
2023-02-28T05:27:36.439Z,9.40
2023-02-28T05:30:38.487Z,11.65
2023-02-28T05:33:42.034Z,13.55
2023-02-28T05:36:44.279Z,9.40
2023-02-28T05:39:46.335Z,10.38
2023-02-28T05:42:50.994Z,12.77
2023-02-28T05:45:53.510Z,10.68
2023-02-28T05:48:57.276Z,11.70
2023-02-28T05:51:59.617Z,9.52
2023-02-28T05:55:01.773Z,9.18
2023-02-28T05:58:04.002Z,8.30
2023-02-28T06:01:33.784Z,7.70
2023-02-28T06:04:36.149Z,7.35
2023-02-28T06:07:38.086Z,7.45
2023-02-28T06:10:40.286Z,10.35
2023-02-28T06:13:42.813Z,6.50
2023-02-28T06:16:45.295Z,7.90
2023-02-28T06:19:49.096Z,10.05
2023-02-28T06:22:55.570Z,11.80
2023-02-28T06:26:00.590Z,8.73
2023-02-28T06:29:02.659Z,9.00
2023-02-28T06:32:04.830Z,7.55
2023-02-28T06:35:07.265Z,10.07
2023-02-28T06:38:09.270Z,10.10
2023-02-28T06:41:11.909Z,13.73
2023-02-28T06:44:18.245Z,11.15
2023-02-28T06:47:20.386Z,9.07
2023-02-28T06:50:24.910Z,7.97
2023-02-28T06:53:26.972Z,12.50
2023-02-28T06:56:29.132Z,10.75
2023-02-28T06:59:31.296Z,11.55
2023-02-28T07:02:33.575Z,10.57
2023-02-28T07:05:39.640Z,12.30
2023-02-28T07:08:42.912Z,17.15
2023-02-28T07:11:44.966Z,12.43
2023-02-28T07:14:46.986Z,11.82
2023-02-28T07:17:49.228Z,14.35
2023-02-28T07:20:51.633Z,11.73
2023-02-28T07:23:53.694Z,15.23
2023-02-28T07:26:56.344Z,22.55
2023-02-28T07:29:58.387Z,12.32
2023-02-28T07:33:00.386Z,14.27
2023-02-28T07:36:10.694Z,13.43
2023-02-28T07:39:12.747Z,11.50
2023-02-28T07:42:14.735Z,15.02
2023-02-28T07:45:16.703Z,12.45
2023-02-28T07:48:18.708Z,8.70
2023-02-28T07:51:20.818Z,10.50
2023-02-28T07:54:22.792Z,10.13
2023-02-28T07:57:25.242Z,11.48
2023-02-28T08:00:27.383Z,12.43
2023-02-28T08:03:29.418Z,13.30
2023-02-28T08:06:31.316Z,11.05
2023-02-28T08:09:33.549Z,14.35
2023-02-28T08:12:35.482Z,11.75
2023-02-28T08:15:37.526Z,11.30
2023-02-28T08:18:39.565Z,12.70
2023-02-28T08:21:41.504Z,14.85
2023-02-28T08:24:44.734Z,19.25
2023-02-28T08:27:47.075Z,15.85
2023-02-28T08:30:50.046Z,15.82
2023-02-28T08:33:53.901Z,13.73
2023-02-28T08:36:56.743Z,12.15
2023-02-28T08:39:58.778Z,11.60
2023-02-28T08:43:18.233Z,9.32
2023-02-28T08:46:25.485Z,10.07
2023-02-28T08:49:27.765Z,9.73
2023-02-28T08:52:29.862Z,11.73
2023-02-28T08:55:31.916Z,8.57
2023-02-28T08:58:35.498Z,12.35
2023-02-28T09:01:37.953Z,16.02
2023-02-28T09:04:40.063Z,9.27
2023-02-28T09:07:42.148Z,18.33
2023-02-28T09:10:44.166Z,15.93
2023-02-28T09:13:46.860Z,10.55
2023-02-28T09:16:49.051Z,13.10
2023-02-28T09:19:51.162Z,11.10
2023-02-28T09:22:53.210Z,11.80
2023-02-28T09:25:56.127Z,7.80
2023-02-28T09:28:59.998Z,9.27
2023-02-28T09:32:03.007Z,10.82
2023-02-28T09:35:05.909Z,10.50
2023-02-28T09:38:11.251Z,10.65
2023-02-28T09:41:20.151Z,10.15
2023-02-28T09:44:32.816Z,14.25
2023-02-28T09:47:40.738Z,6.82
2023-02-28T09:51:01.828Z,10.52
2023-02-28T09:54:04.164Z,11.07
2023-02-28T09:57:08.748Z,11.40
2023-02-28T10:00:26.119Z,12.48
2023-02-28T10:03:41.263Z,12.07
2023-02-28T10:06:51.422Z,11.65
2023-02-28T10:09:57.580Z,7.40
2023-02-28T10:13:05.738Z,10.05
2023-02-28T10:16:44.716Z,10.32
2023-02-28T10:20:20.983Z,10.02
2023-02-28T10:23:29.369Z,9.50
2023-02-28T10:26:33.658Z,14.57
2023-02-28T10:29:37.134Z,11.68
2023-02-28T10:32:41.243Z,11.02
2023-02-28T10:35:43.499Z,8.68
2023-02-28T10:38:47.041Z,9.80
2023-02-28T10:41:49.097Z,10.77
2023-02-28T10:45:05.178Z,12.65
2023-02-28T10:48:10.263Z,9.15
2023-02-28T10:51:15.487Z,11.00
2023-02-28T10:54:22.998Z,17.02
2023-02-28T10:57:25.686Z,8.60
2023-02-28T11:00:34.965Z,11.18
2023-02-28T11:03:36.998Z,13.18
2023-02-28T11:06:40.679Z,8.38
2023-02-28T11:09:44.758Z,8.10
2023-02-28T11:12:52.680Z,14.07
2023-02-28T11:16:01.195Z,13.48
2023-02-28T11:19:07.810Z,9.55
2023-02-28T11:22:12.044Z,9.25
2023-02-28T11:25:25.414Z,12.10
2023-02-28T11:28:36.735Z,11.23
2023-02-28T11:31:38.755Z,14.23
2023-02-28T11:34:42.212Z,9.27
2023-02-28T11:37:46.895Z,7.97
2023-02-28T11:40:58.579Z,6.25
2023-02-28T11:44:06.548Z,15.55
2023-02-28T11:47:46.575Z,7.90
2023-02-28T11:50:48.701Z,7.97
2023-02-28T11:53:56.748Z,7.60
2023-02-28T11:57:04.421Z,11.10
2023-02-28T12:00:31.367Z,13.23
2023-02-28T12:03:52.062Z,9.45
2023-02-28T12:07:12.943Z,13.30
2023-02-28T12:10:15.171Z,8.82
2023-02-28T12:13:20.484Z,15.63
2023-02-28T12:16:48.670Z,10.18
2023-02-28T12:20:18.331Z,12.52
2023-02-28T12:23:32.426Z,8.98
2023-02-28T12:26:43.831Z,10.75
2023-02-28T12:30:00.300Z,9.68
2023-02-28T12:33:09.487Z,15.25
2023-02-28T12:36:18.491Z,20.05
2023-02-28T12:39:49.757Z,15.68
2023-02-28T12:42:59.423Z,10.98
2023-02-28T12:46:09.636Z,14.20
2023-02-28T12:49:20.546Z,17.02
2023-02-28T12:52:47.659Z,13.20
2023-02-28T12:56:19.792Z,9.52
2023-02-28T12:59:24.661Z,13.20
2023-02-28T13:02:45.367Z,10.85
2023-02-28T13:06:04.608Z,17.98
2023-02-28T13:12:16.512Z,14.63
2023-02-28T13:15:29.679Z,12.80
2023-02-28T13:18:40.763Z,16.40
2023-02-28T13:21:45.915Z,11.05
2023-02-28T13:24:50.748Z,15.65
2023-02-28T13:28:02.113Z,13.70
2023-02-28T13:31:06.562Z,12.00
2023-02-28T13:34:17.096Z,16.88
2023-02-28T13:37:18.964Z,18.00
2023-02-28T13:40:38.271Z,16.63
2023-02-28T13:44:13.225Z,12.75
2023-02-28T13:47:23.383Z,9.13
2023-02-28T13:50:28.073Z,13.35
2023-02-28T13:54:00.342Z,13.43
2023-02-28T13:57:21.113Z,14.00
2023-02-28T14:00:32.747Z,15.70
2023-02-28T14:03:53.392Z,13.20
2023-02-28T14:06:58.351Z,12.75
2023-02-28T14:10:06.719Z,12.95
2023-02-28T14:13:45.752Z,15.03
2023-02-28T14:16:52.332Z,15.60
2023-02-28T14:19:54.613Z,15.40
2023-02-28T14:23:31.359Z,13.18
2023-02-28T14:26:55.046Z,11.38
2023-02-28T14:30:08.160Z,19.60
2023-02-28T14:33:35.852Z,14.02
2023-02-28T14:36:44.573Z,10.18
2023-02-28T14:39:50.662Z,14.07
2023-02-28T14:43:04.964Z,22.83
2023-02-28T14:46:08.391Z,8.85
2023-02-28T14:49:25.895Z,11.27
2023-02-28T14:52:30.856Z,12.85
2023-02-28T14:55:36.275Z,16.63
2023-02-28T14:58:38.657Z,13.57
2023-02-28T15:01:40.643Z,14.40
2023-02-28T15:04:43.190Z,16.38
2023-02-28T15:07:46.730Z,14.90
2023-02-28T15:11:09.089Z,15.45
2023-02-28T15:14:19.047Z,20.48
2023-02-28T15:17:28.796Z,16.38
2023-02-28T15:20:30.883Z,16.25
2023-02-28T15:23:35.348Z,17.60
2023-02-28T15:26:42.057Z,12.48
2023-02-28T15:29:52.531Z,14.18
2023-02-28T15:33:13.117Z,8.90
2023-02-28T15:36:22.003Z,13.10
2023-02-28T15:39:28.237Z,18.23
2023-02-28T15:42:30.983Z,12.88
2023-02-28T15:45:45.643Z,13.50
2023-02-28T15:48:57.152Z,16.30
2023-02-28T15:52:01.737Z,14.05
2023-02-28T15:55:13.966Z,12.88
2023-02-28T15:58:16.238Z,17.48
2023-02-28T16:01:35.060Z,13.70
2023-02-28T16:04:38.212Z,13.70
2023-02-28T16:07:43.195Z,17.75
2023-02-28T16:10:45.566Z,15.20
2023-02-28T16:13:47.774Z,18.10
2023-02-28T16:16:54.515Z,14.13
2023-02-28T16:19:57.208Z,15.85
2023-02-28T16:23:02.553Z,17.88
2023-02-28T16:26:06.605Z,18.35
2023-02-28T16:29:11.720Z,19.77
2023-02-28T16:32:16.749Z,21.50
2023-02-28T16:35:20.322Z,21.60
2023-02-28T16:38:24.804Z,24.98
2023-02-28T16:41:29.643Z,22.42
2023-02-28T16:44:36.870Z,17.90
2023-02-28T16:47:39.905Z,20.05
2023-02-28T16:50:42.636Z,21.08
2023-02-28T16:53:46.460Z,21.77
2023-02-28T16:56:52.113Z,30.55
2023-02-28T16:59:56.786Z,22.95
2023-02-28T17:03:01.097Z,29.55
2023-02-28T17:06:03.910Z,19.45
2023-02-28T17:09:05.958Z,21.45
2023-02-28T17:12:09.430Z,24.88
2023-02-28T17:15:13.291Z,31.30
2023-02-28T17:18:20.014Z,26.02
2023-02-28T17:21:22.129Z,26.23
2023-02-28T17:24:30.870Z,23.55
2023-02-28T17:27:36.728Z,19.67
2023-02-28T17:30:39.150Z,19.92
2023-02-28T17:33:42.196Z,21.05
2023-02-28T17:36:44.757Z,22.10
2023-02-28T17:39:47.237Z,20.25
2023-02-28T17:43:32.496Z,23.83
2023-02-28T17:46:34.939Z,23.23
2023-02-28T17:49:43.346Z,20.40
2023-02-28T17:52:45.432Z,23.83
2023-02-28T17:55:52.710Z,21.02
2023-02-28T17:58:57.272Z,27.47
2023-02-28T18:02:02.213Z,20.67
2023-02-28T18:05:06.640Z,20.25
2023-02-28T18:08:11.659Z,16.98
2023-02-28T18:11:22.152Z,18.80
2023-02-28T18:14:26.605Z,24.02
2023-02-28T18:17:31.313Z,23.13
2023-02-28T18:20:37.681Z,22.23
2023-02-28T18:23:47.781Z,31.95
2023-02-28T18:26:49.754Z,25.50
2023-02-28T18:29:52.904Z,27.80
2023-02-28T18:32:54.890Z,29.27
2023-02-28T18:35:57.939Z,26.60
2023-02-28T18:39:00.069Z,22.60
2023-02-28T18:42:02.325Z,22.20
2023-02-28T18:45:05.013Z,24.52
2023-02-28T18:48:09.494Z,22.80
2023-02-28T18:51:20.144Z,26.05
2023-02-28T18:54:22.588Z,27.48
2023-02-28T18:57:25.067Z,25.20
2023-02-28T19:00:27.310Z,25.38
2023-02-28T19:03:31.945Z,20.27
2023-02-28T19:06:35.107Z,23.63
2023-02-28T19:09:37.235Z,22.13
2023-02-28T19:12:40.063Z,27.08
2023-02-28T19:15:42.171Z,21.27
2023-02-28T19:18:44.871Z,20.65
2023-02-28T19:21:47.053Z,28.00
2023-02-28T19:24:51.128Z,22.15
2023-02-28T19:27:54.851Z,28.92
2023-02-28T19:30:59.591Z,24.25
2023-02-28T19:34:02.105Z,27.45
2023-02-28T19:37:04.475Z,25.98
2023-02-28T19:40:11.239Z,21.00
2023-02-28T19:43:14.886Z,23.00
2023-02-28T19:46:17.478Z,28.85
2023-02-28T19:49:19.501Z,19.08
2023-02-28T19:52:22.645Z,22.77
2023-02-28T19:55:25.039Z,19.23
2023-02-28T19:58:29.140Z,17.73
2023-02-28T20:01:31.348Z,22.92
2023-02-28T20:04:33.424Z,22.65
2023-02-28T20:07:35.827Z,14.85
2023-02-28T20:10:40.828Z,24.85
2023-02-28T20:13:43.437Z,22.52
2023-02-28T20:16:46.168Z,24.50
2023-02-28T20:19:48.633Z,19.75
2023-02-28T20:22:51.527Z,24.98
2023-02-28T20:25:54.317Z,25.17
2023-02-28T20:28:56.991Z,21.85
2023-02-28T20:31:59.471Z,20.45
2023-02-28T20:35:01.565Z,27.05
2023-02-28T20:38:03.596Z,25.20
2023-02-28T20:41:47.780Z,27.85
2023-02-28T20:44:50.162Z,22.15
2023-02-28T20:47:52.393Z,23.63
2023-02-28T20:50:59.945Z,25.80
2023-02-28T20:54:04.556Z,27.65
2023-02-28T20:57:08.091Z,27.05
2023-02-28T21:00:16.460Z,22.15
2023-02-28T21:03:18.522Z,24.10
2023-02-28T21:06:23.414Z,25.55
2023-02-28T21:09:25.481Z,21.23
2023-02-28T21:12:27.772Z,29.17
2023-02-28T21:15:30.066Z,24.20
2023-02-28T21:18:35.036Z,23.23
2023-02-28T21:21:40.169Z,29.75
2023-02-28T21:24:45.137Z,20.05
2023-02-28T21:27:48.586Z,21.10
2023-02-28T21:30:50.960Z,18.08
2023-02-28T21:33:54.835Z,22.25
2023-02-28T21:36:57.093Z,24.90
2023-02-28T21:39:59.196Z,24.17
2023-02-28T21:43:01.270Z,20.98
2023-02-28T21:46:06.573Z,23.95
2023-02-28T21:49:08.863Z,20.50
2023-02-28T21:52:11.719Z,19.27
2023-02-28T21:55:13.780Z,17.77
2023-02-28T21:58:16.292Z,23.00
2023-02-28T22:01:21.520Z,21.27
2023-02-28T22:04:23.851Z,17.75
2023-02-28T22:07:26.063Z,20.17
2023-02-28T22:10:28.016Z,21.02
2023-02-28T22:13:30.385Z,17.65
2023-02-28T22:16:49.566Z,20.45
2023-02-28T22:19:53.046Z,24.88
2023-02-28T22:22:55.354Z,21.67
2023-02-28T22:26:00.261Z,20.17
2023-02-28T22:29:02.375Z,20.30
2023-02-28T22:32:04.678Z,23.10
2023-02-28T22:35:07.964Z,22.83
2023-02-28T22:38:11.163Z,22.90
2023-02-28T22:41:14.285Z,20.50
2023-02-28T22:44:16.638Z,23.00
2023-02-28T22:47:18.977Z,21.48
2023-02-28T22:50:21.042Z,21.05
2023-02-28T22:53:23.057Z,22.33
2023-02-28T22:56:27.407Z,17.75
2023-02-28T22:59:30.445Z,22.10
2023-02-28T23:02:33.179Z,22.02
2023-02-28T23:05:35.202Z,18.05
2023-02-28T23:08:37.276Z,20.90
2023-02-28T23:11:44.980Z,20.45
2023-02-28T23:14:47.057Z,21.97
2023-02-28T23:17:50.614Z,15.27
2023-02-28T23:20:52.670Z,17.40
2023-02-28T23:23:54.977Z,15.52
2023-02-28T23:26:59.318Z,18.83
2023-02-28T23:30:03.123Z,19.75
2023-02-28T23:33:06.876Z,20.30
2023-02-28T23:36:15.999Z,15.40
2023-02-28T23:39:19.171Z,16.45
2023-02-28T23:42:21.274Z,18.23
2023-02-28T23:45:23.458Z,20.05
2023-02-28T23:48:25.412Z,17.77
2023-02-28T23:51:27.418Z,19.65
2023-02-28T23:54:29.943Z,17.95
2023-02-28T23:57:31.942Z,18.88
